Time;durP1;ratioP1;P1;durP2;ratioP2;P2;SDS_P1;SDS_P2;PMS_P1;PMS_P2;Temp;Humidity;BMP_temperature;BMP_pressure;BME280_temperature;BME280_humidity;BME280_pressure;Samples;Min_cycle;Max_cycle;Signal;HPM_P1;HPM_P2
2022/10/27 00:00:21;;;;;;;2.47;2.28;;;13.70;99.90;;;;;;4990953;28;20249;-80
2022/10/27 00:02:49;;;;;;;2.70;2.50;;;13.60;99.90;;;;;;4968197;28;20565;-82
2022/10/27 00:05:17;;;;;;;2.30;2.10;;;13.60;99.90;;;;;;4970317;28;20240;-79
2022/10/27 00:07:44;;;;;;;1.90;1.80;;;13.60;99.90;;;;;;4971172;28;20212;-79
2022/10/27 00:10:13;;;;;;;1.90;1.80;;;13.60;99.90;;;;;;4960236;28;20229;-81
2022/10/27 00:12:41;;;;;;;2.35;2.17;;;13.60;99.90;;;;;;4985726;28;20251;-80
2022/10/27 00:15:11;;;;;;;3.33;2.10;;;13.60;99.90;;;;;;4988124;28;20227;-80
2022/10/27 00:17:40;;;;;;;2.78;2.20;;;13.60;99.90;;;;;;4973128;28;21080;-80
2022/10/27 00:20:09;;;;;;;2.38;2.20;;;13.50;99.90;;;;;;4986645;28;20233;-81
2022/10/27 00:22:37;;;;;;;2.17;2.08;;;13.40;99.90;;;;;;4974214;28;20201;-80
2022/10/27 00:25:05;;;;;;;2.38;2.17;;;13.40;99.90;;;;;;4986669;28;20232;-81
2022/10/27 00:27:34;;;;;;;3.33;2.25;;;13.40;99.90;;;;;;4989427;28;20733;-80
2022/10/27 00:30:01;;;;;;;2.35;2.10;;;13.40;99.90;;;;;;4989675;28;20225;-80
2022/10/27 00:32:29;;;;;;;2.10;2.00;;;13.40;99.90;;;;;;4996186;28;20197;-82
2022/10/27 00:34:56;;;;;;;1.98;1.88;;;13.40;99.90;;;;;;4972757;28;20735;-80
2022/10/27 00:37:24;;;;;;;2.50;2.30;;;13.40;99.90;;;;;;4970874;28;20685;-79
2022/10/27 00:39:51;;;;;;;4.00;2.65;;;13.30;99.90;;;;;;4968840;28;20224;-81
2022/10/27 00:42:19;;;;;;;2.97;2.67;;;13.30;99.90;;;;;;4967876;28;20606;-78
2022/10/27 00:44:48;;;;;;;2.70;2.08;;;13.30;99.90;;;;;;4987684;28;20590;-78
2022/10/27 00:47:22;;;;;;;2.22;2.13;;;13.20;99.90;;;;;;4990922;28;20201;-81
2022/10/27 00:49:55;;;;;;;2.85;2.65;;;13.10;99.90;;;;;;4975702;28;20227;-82
2022/10/27 00:52:29;;;;;;;3.47;2.40;;;13.10;99.90;;;;;;4990680;28;20655;-79
2022/10/27 00:55:01;;;;;;;2.45;2.25;;;13.00;99.90;;;;;;4973570;28;20235;-79
2022/10/27 00:57:30;;;;;;;2.50;2.30;;;13.00;99.90;;;;;;4979730;28;20205;-80
2022/10/27 01:00:00;;;;;;;4.18;2.03;;;13.10;99.90;;;;;;4990339;28;20295;-78
2022/10/27 01:02:28;;;;;;;2.42;2.22;;;13.10;99.90;;;;;;4975726;28;20197;-82
2022/10/27 01:05:00;;;;;;;2.58;2.22;;;13.10;99.90;;;;;;4975726;28;20604;-81
2022/10/27 01:07:29;;;;;;;1.70;1.60;;;13.10;99.90;;;;;;4992527;28;20201;-79
2022/10/27 01:09:57;;;;;;;2.40;2.20;;;13.20;99.90;;;;;;4977074;28;20699;-80
2022/10/27 01:12:28;;;;;;;2.20;2.00;;;13.20;99.90;;;;;;4976191;28;20204;-81
2022/10/27 01:14:56;;;;;;;2.50;2.30;;;13.20;99.90;;;;;;4987977;28;20252;-79
2022/10/27 01:17:39;;;;;;;2.13;1.92;;;13.20;99.90;;;;;;4995098;28;20213;-79
2022/10/27 01:20:43;;;;;;;2.50;2.20;;;13.20;99.90;;;;;;4993503;28;20622;-80
2022/10/27 01:23:20;;;;;;;2.10;2.00;;;13.10;99.90;;;;;;4992273;28;20583;-80
2022/10/27 01:26:27;;;;;;;1.85;1.75;;;13.10;99.90;;;;;;4979859;28;20667;-79
2022/10/27 01:29:10;;;;;;;2.35;2.20;;;13.10;99.90;;;;;;4972223;28;20201;-80
2022/10/27 01:31:43;;;;;;;2.38;2.17;;;13.10;99.90;;;;;;4979515;28;20225;-80
2022/10/27 01:34:17;;;;;;;1.92;1.83;;;13.10;99.90;;;;;;4996139;28;20778;-80
2022/10/27 01:36:50;;;;;;;2.10;2.00;;;13.10;99.90;;;;;;4995658;28;20252;-79
2022/10/27 01:39:21;;;;;;;2.33;2.22;;;13.00;99.90;;;;;;4990647;28;20208;-78
2022/10/27 01:41:52;;;;;;;2.10;2.00;;;13.10;99.90;;;;;;4998818;28;20221;-78
2022/10/27 01:44:26;;;;;;;2.05;1.95;;;13.10;99.90;;;;;;4994109;28;20208;-81
2022/10/27 01:46:57;;;;;;;2.92;1.95;;;13.10;99.90;;;;;;4991533;28;20216;-81
2022/10/27 01:49:26;;;;;;;2.05;1.95;;;13.00;99.90;;;;;;4974790;28;20217;-82
2022/10/27 01:52:04;;;;;;;2.13;2.03;;;13.00;99.90;;;;;;4975609;28;20197;-80
2022/10/27 01:54:31;;;;;;;2.58;2.38;;;13.00;99.90;;;;;;4989150;28;20200;-79
2022/10/27 01:57:19;;;;;;;2.03;1.92;;;13.00;99.90;;;;;;4979930;28;20259;-78
2022/10/27 01:59:58;;;;;;;2.40;2.20;;;13.00;99.90;;;;;;4978495;28;20761;-78
2022/10/27 02:02:35;;;;;;;2.10;2.00;;;13.00;99.90;;;;;;4996331;28;20662;-80
2022/10/27 02:05:10;;;;;;;2.20;2.00;;;12.90;99.90;;;;;;4994910;28;20228;-79
2022/10/27 02:07:50;;;;;;;2.35;2.15;;;12.90;99.90;;;;;;4995398;28;21711;-79
2022/10/27 02:10:23;;;;;;;2.47;2.28;;;12.90;99.90;;;;;;4981650;28;20640;-79
2022/10/27 02:12:51;;;;;;;2.20;2.08;;;12.90;99.90;;;;;;4983784;28;20251;-79
2022/10/27 02:15:27;;;;;;;2.20;2.10;;;12.90;99.90;;;;;;4997771;28;20224;-79
2022/10/27 02:18:02;;;;;;;2.20;2.10;;;12.90;99.90;;;;;;4995599;28;20216;-79
2022/10/27 02:20:35;;;;;;;2.10;2.00;;;12.90;99.90;;;;;;4992451;28;20224;-79
2022/10/27 02:23:07;;;;;;;1.90;1.80;;;12.90;99.90;;;;;;4993339;28;20702;-79
2022/10/27 02:25:41;;;;;;;2.05;1.90;;;12.90;99.90;;;;;;4977975;28;20231;-79
2022/10/27 02:28:13;;;;;;;2.55;1.70;;;12.90;99.90;;;;;;4996527;28;20216;-80
2022/10/27 02:30:41;;;;;;;2.50;2.25;;;12.90;99.90;;;;;;4993328;28;20221;-78
2022/10/27 02:33:11;;;;;;;2.33;2.22;;;12.90;99.90;;;;;;4995458;28;20208;-80
2022/10/27 02:35:38;;;;;;;2.47;1.90;;;12.80;99.90;;;;;;4960653;28;20303;-78
2022/10/27 02:38:06;;;;;;;2.85;2.15;;;12.80;99.90;;;;;;4993352;28;20208;-78
2022/10/27 02:40:34;;;;;;;4.50;2.47;;;12.80;99.90;;;;;;4993782;28;20218;-78
2022/10/27 02:43:01;;;;;;;2.70;2.50;;;12.70;99.90;;;;;;4990131;28;20201;-78
2022/10/27 02:45:30;;;;;;;2.75;2.08;;;12.70;99.90;;;;;;4991303;28;20220;-78
2022/10/27 02:47:57;;;;;;;2.50;2.30;;;12.70;99.90;;;;;;4991924;28;20209;-78
2022/10/27 02:50:26;;;;;;;2.47;2.30;;;12.70;99.90;;;;;;5003918;28;20220;-78
2022/10/27 02:52:54;;;;;;;2.22;2.10;;;12.70;99.90;;;;;;4990033;28;20582;-77
2022/10/27 02:55:21;;;;;;;2.72;2.08;;;12.70;99.90;;;;;;4988595;28;20236;-77
2022/10/27 02:57:48;;;;;;;2.10;2.00;;;12.70;99.90;;;;;;4983855;28;20240;-79
2022/10/27 03:00:19;;;;;;;2.10;2.00;;;12.60;99.90;;;;;;4989263;28;20216;-79
2022/10/27 03:02:48;;;;;;;2.50;2.30;;;12.60;99.90;;;;;;4999954;28;20208;-78
2022/10/27 03:05:15;;;;;;;2.58;2.38;;;12.60;99.90;;;;;;4994396;28;20224;-82
2022/10/27 03:07:45;;;;;;;2.85;1.90;;;12.60;99.90;;;;;;4994296;28;20272;-78
2022/10/27 03:10:13;;;;;;;1.80;1.70;;;12.60;99.90;;;;;;4994492;28;20240;-78
2022/10/27 03:12:41;;;;;;;2.40;2.20;;;12.60;99.90;;;;;;4976309;28;20369;-78
2022/10/27 03:15:09;;;;;;;1.95;1.85;;;12.50;99.90;;;;;;4992983;28;20220;-80
2022/10/27 03:17:36;;;;;;;2.13;1.92;;;12.50;99.90;;;;;;4977441;28;20197;-79
2022/10/27 03:20:04;;;;;;;2.33;2.13;;;12.50;99.90;;;;;;4993833;28;20217;-79
2022/10/27 03:22:32;;;;;;;2.30;2.10;;;12.50;99.90;;;;;;4995029;28;20589;-77
2022/10/27 03:25:01;;;;;;;2.17;2.08;;;12.50;99.90;;;;;;4978089;28;20236;-81
2022/10/27 03:27:28;;;;;;;2.22;2.03;;;12.40;99.90;;;;;;4978654;28;20200;-77
2022/10/27 03:29:55;;;;;;;2.45;2.28;;;12.40;99.90;;;;;;4989534;28;20225;-80
2022/10/27 03:32:23;;;;;;;2.00;1.90;;;12.40;99.90;;;;;;4994490;28;20208;-79
2022/10/27 03:34:51;;;;;;;2.30;2.15;;;12.40;99.90;;;;;;4995454;28;20233;-82
2022/10/27 03:37:19;;;;;;;2.70;2.50;;;12.40;99.90;;;;;;4980070;28;20197;-79
2022/10/27 03:39:46;;;;;;;2.15;1.98;;;12.40;99.90;;;;;;4983185;28;20229;-82
2022/10/27 03:42:16;;;;;;;2.40;2.20;;;12.40;99.90;;;;;;4990554;28;20204;-80
2022/10/27 03:44:44;;;;;;;2.45;2.28;;;12.30;99.90;;;;;;4976525;28;20241;-77
2022/10/27 03:47:11;;;;;;;2.35;2.22;;;12.30;99.90;;;;;;4992617;28;20203;-79
2022/10/27 03:49:39;;;;;;;2.33;2.13;;;12.30;99.90;;;;;;4990467;28;20332;-77
2022/10/27 03:52:07;;;;;;;2.30;2.10;;;12.30;99.90;;;;;;4990754;28;20228;-79
2022/10/27 03:54:35;;;;;;;2.30;2.10;;;12.30;99.90;;;;;;4992653;28;20200;-79
2022/10/27 03:57:02;;;;;;;2.28;2.08;;;12.30;99.90;;;;;;4990403;28;20201;-77
2022/10/27 03:59:31;;;;;;;2.33;2.20;;;12.30;99.90;;;;;;4999843;28;20196;-80
2022/10/27 04:01:59;;;;;;;2.38;2.13;;;12.30;99.90;;;;;;4995596;28;20247;-80
2022/10/27 04:04:26;;;;;;;2.20;2.10;;;12.30;99.90;;;;;;4993037;28;20263;-81
2022/10/27 04:06:54;;;;;;;2.38;2.17;;;12.30;99.90;;;;;;4977398;28;20666;-78
2022/10/27 04:09:21;;;;;;;2.67;2.47;;;12.30;99.90;;;;;;4993982;28;20860;-78
2022/10/27 04:11:49;;;;;;;4.45;2.20;;;12.20;99.90;;;;;;4994127;28;20217;-78
2022/10/27 04:14:17;;;;;;;2.20;2.10;;;12.20;99.90;;;;;;4994511;28;20205;-78
2022/10/27 04:16:50;;;;;;;2.40;2.20;;;12.20;99.90;;;;;;4993251;28;20221;-78
2022/10/27 04:19:18;;;;;;;2.03;1.92;;;12.20;99.90;;;;;;4975943;28;20196;-79
2022/10/27 04:21:45;;;;;;;2.00;1.90;;;12.20;99.90;;;;;;4993735;28;20220;-77
2022/10/27 04:24:13;;;;;;;2.10;1.98;;;12.10;99.90;;;;;;4989189;28;20695;-78
2022/10/27 04:26:41;;;;;;;2.67;2.00;;;12.10;99.90;;;;;;4989123;28;20951;-77
2022/10/27 04:29:08;;;;;;;2.75;2.55;;;12.10;99.90;;;;;;4992703;28;20201;-77
2022/10/27 04:31:37;;;;;;;1.95;1.85;;;12.10;99.90;;;;;;4988766;28;20221;-77
2022/10/27 04:34:06;;;;;;;3.63;2.10;;;12.10;99.90;;;;;;4974941;28;20267;-78
2022/10/27 04:36:34;;;;;;;2.20;1.90;;;12.10;99.90;;;;;;4970459;28;20225;-78
2022/10/27 04:39:01;;;;;;;2.40;2.20;;;12.00;99.90;;;;;;4992698;28;20860;-77
2022/10/27 04:41:29;;;;;;;2.50;2.30;;;12.00;99.90;;;;;;4992339;28;20227;-80
2022/10/27 04:43:56;;;;;;;2.63;2.42;;;12.00;99.90;;;;;;4990609;28;20212;-78
2022/10/27 04:46:24;;;;;;;2.47;2.08;;;12.00;99.90;;;;;;4992817;28;20219;-78
2022/10/27 04:48:51;;;;;;;2.70;2.50;;;12.00;99.90;;;;;;4979036;28;20200;-79
2022/10/27 04:51:23;;;;;;;2.10;1.90;;;12.00;99.90;;;;;;4989695;28;20228;-78
2022/10/27 04:53:50;;;;;;;2.10;2.00;;;12.00;99.90;;;;;;4970876;28;20241;-77
2022/10/27 04:56:18;;;;;;;1.80;1.70;;;12.00;99.90;;;;;;4975009;28;20225;-78
2022/10/27 04:58:46;;;;;;;2.30;2.20;;;12.00;99.90;;;;;;4991930;28;20201;-76
2022/10/27 05:01:15;;;;;;;2.55;2.35;;;12.00;99.90;;;;;;4976327;28;20217;-80
2022/10/27 05:03:42;;;;;;;2.42;2.08;;;12.00;99.90;;;;;;4993130;28;20224;-79
2022/10/27 05:06:10;;;;;;;1.85;1.75;;;12.00;99.90;;;;;;4976208;28;20811;-78
2022/10/27 05:08:39;;;;;;;2.20;2.10;;;11.90;99.90;;;;;;4997806;28;20189;-83
2022/10/27 05:11:06;;;;;;;2.38;2.17;;;11.90;99.90;;;;;;4990337;28;20228;-80
2022/10/27 05:13:34;;;;;;;2.38;2.17;;;11.90;99.90;;;;;;4980253;28;20207;-79
2022/10/27 05:16:02;;;;;;;2.38;2.17;;;11.90;99.90;;;;;;4992630;28;20235;-81
2022/10/27 05:18:31;;;;;;;2.10;2.00;;;11.80;99.90;;;;;;4975106;28;20233;-82
2022/10/27 05:20:59;;;;;;;2.42;2.25;;;11.80;99.90;;;;;;4997617;28;20221;-80
2022/10/27 05:23:26;;;;;;;2.22;2.10;;;11.80;99.90;;;;;;4994565;28;20268;-84
2022/10/27 05:25:57;;;;;;;1.98;1.88;;;11.80;99.90;;;;;;4991038;28;20245;-81
2022/10/27 05:28:24;;;;;;;2.20;2.00;;;11.80;99.90;;;;;;4979795;28;20564;-80
2022/10/27 05:30:57;;;;;;;1.77;1.67;;;11.80;99.90;;;;;;4993548;28;20228;-86
2022/10/27 05:33:25;;;;;;;2.40;2.20;;;11.80;99.90;;;;;;4976457;28;20280;-80
2022/10/27 05:35:54;;;;;;;3.95;1.90;;;11.80;99.90;;;;;;4994416;28;20232;-80
2022/10/27 05:38:21;;;;;;;2.35;2.15;;;11.80;99.90;;;;;;4995910;28;20224;-78
2022/10/27 05:40:54;;;;;;;2.90;2.70;;;11.70;99.90;;;;;;4993184;28;21779;-76
2022/10/27 05:43:23;;;;;;;2.30;2.20;;;11.70;99.90;;;;;;4988690;28;20204;-76
2022/10/27 05:45:52;;;;;;;2.38;2.17;;;11.80;99.90;;;;;;4974292;28;20224;-78
2022/10/27 05:48:19;;;;;;;2.17;2.05;;;12.10;99.90;;;;;;4993854;28;20197;-77
2022/10/27 05:50:52;;;;;;;2.53;2.30;;;12.40;99.90;;;;;;4995229;28;20228;-76
2022/10/27 05:53:20;;;;;;;3.05;2.47;;;12.70;99.90;;;;;;5029256;23;20227;-73
2022/10/27 05:55:48;;;;;;;2.42;2.22;;;12.90;99.90;;;;;;5003031;28;20216;-73
2022/10/27 05:58:15;;;;;;;2.33;2.22;;;13.00;99.90;;;;;;5006507;28;20204;-73
2022/10/27 06:00:44;;;;;;;2.22;2.08;;;13.20;99.90;;;;;;5009305;28;20717;-73
2022/10/27 06:03:19;;;;;;;3.30;2.35;;;13.30;99.90;;;;;;4979641;28;20213;-74
2022/10/27 06:05:47;;;;;;;2.20;2.10;;;13.20;99.90;;;;;;4989446;28;20737;-73
2022/10/27 06:08:14;;;;;;;2.55;2.35;;;13.00;99.90;;;;;;4993188;28;20196;-73
2022/10/27 06:10:41;;;;;;;2.28;2.15;;;12.70;99.90;;;;;;4991685;28;20228;-73
2022/10/27 06:13:12;;;;;;;3.22;2.00;;;12.60;99.90;;;;;;4986140;28;20693;-75
2022/10/27 06:15:39;;;;;;;2.30;2.15;;;12.50;99.90;;;;;;4985870;28;20304;-74
2022/10/27 06:18:08;;;;;;;2.45;2.25;;;12.40;99.90;;;;;;4988996;28;20219;-75
2022/10/27 06:20:36;;;;;;;2.20;2.00;;;12.30;99.90;;;;;;4974965;28;20643;-75
2022/10/27 06:23:03;;;;;;;3.55;2.13;;;12.30;99.90;;;;;;4991560;28;20220;-75
2022/10/27 06:25:30;;;;;;;3.92;2.33;;;12.20;99.90;;;;;;4974692;28;20221;-75
2022/10/27 06:27:58;;;;;;;1.77;1.67;;;12.20;99.90;;;;;;4990415;28;20197;-73
2022/10/27 06:30:25;;;;;;;2.28;2.00;;;12.20;99.90;;;;;;4976454;28;20217;-73
2022/10/27 06:32:52;;;;;;;2.30;2.10;;;12.10;99.90;;;;;;4987652;28;20233;-73
2022/10/27 06:35:21;;;;;;;2.13;1.92;;;12.10;99.90;;;;;;4988743;28;20225;-73
2022/10/27 06:37:50;;;;;;;2.78;2.58;;;12.10;99.90;;;;;;4990128;28;20209;-73
2022/10/27 06:40:19;;;;;;;3.20;2.67;;;12.10;99.90;;;;;;4988025;28;20797;-73
2022/10/27 06:42:49;;;;;;;2.00;1.90;;;12.10;99.90;;;;;;4985880;28;20247;-73
2022/10/27 06:45:17;;;;;;;2.35;2.15;;;12.10;99.90;;;;;;4983440;28;20263;-73
2022/10/27 06:47:44;;;;;;;2.42;2.22;;;12.20;99.90;;;;;;4987084;28;20196;-73
2022/10/27 06:50:12;;;;;;;2.53;2.25;;;12.20;99.90;;;;;;4970303;28;20275;-73
2022/10/27 06:52:41;;;;;;;6.00;2.50;;;12.20;99.90;;;;;;4955011;28;20220;-72
2022/10/27 06:55:09;;;;;;;2.70;2.50;;;12.20;99.90;;;;;;4988915;28;20216;-75
2022/10/27 06:57:42;;;;;;;2.00;1.90;;;12.20;99.90;;;;;;4989255;28;20666;-73
2022/10/27 07:00:11;;;;;;;3.45;2.30;;;12.30;99.90;;;;;;4984475;28;20217;-73
2022/10/27 07:02:38;;;;;;;2.20;2.00;;;12.40;99.90;;;;;;4986243;28;20217;-73
2022/10/27 07:05:07;;;;;;;2.83;2.38;;;13.20;99.90;;;;;;4987559;28;20216;-73
2022/10/27 07:07:35;;;;;;;2.85;2.33;;;14.00;99.90;;;;;;4985800;28;20677;-73
2022/10/27 07:10:06;;;;;;;2.72;2.20;;;14.90;99.90;;;;;;4972284;28;20225;-73
2022/10/27 07:12:33;;;;;;;5.68;2.35;;;15.60;99.90;;;;;;4988726;28;20283;-73
2022/10/27 07:15:01;;;;;;;5.03;2.85;;;16.30;99.90;;;;;;4988114;28;20251;-73
2022/10/27 07:17:29;;;;;;;2.45;2.25;;;16.80;99.90;;;;;;4990101;28;20201;-73
2022/10/27 07:19:57;;;;;;;3.58;2.60;;;17.10;99.90;;;;;;4990560;28;20225;-75
2022/10/27 07:22:24;;;;;;;4.07;2.83;;;17.40;99.90;;;;;;4989775;28;20213;-76
2022/10/27 07:24:51;;;;;;;2.63;2.17;;;17.30;99.90;;;;;;4953216;28;20276;-76
2022/10/27 07:27:20;;;;;;;3.40;2.40;;;17.30;99.90;;;;;;4986867;28;20220;-76
2022/10/27 07:29:49;;;;;;;3.50;2.35;;;17.20;99.90;;;;;;4987920;28;20229;-75
2022/10/27 07:32:17;;;;;;;2.08;1.80;;;17.60;99.90;;;;;;4985639;28;20225;-77
2022/10/27 07:34:45;;;;;;;3.75;2.05;;;17.80;99.90;;;;;;4972574;28;20769;-76
2022/10/27 07:37:13;;;;;;;4.15;2.30;;;18.10;99.90;;;;;;4970790;28;20619;-76
2022/10/27 07:39:41;;;;;;;2.33;2.20;;;18.30;99.90;;;;;;4988827;28;20225;-76
2022/10/27 07:42:08;;;;;;;2.60;1.83;;;18.40;99.90;;;;;;5002229;28;20708;-76
2022/10/27 07:44:40;;;;;;;2.88;2.00;;;18.60;99.90;;;;;;5004376;28;20216;-77
2022/10/27 07:47:07;;;;;;;4.10;2.08;;;19.20;99.90;;;;;;4997125;28;20212;-75
2022/10/27 07:49:34;;;;;;;3.90;2.13;;;19.40;99.90;;;;;;4990023;28;20209;-75
2022/10/27 07:52:02;;;;;;;3.20;2.15;;;18.90;99.90;;;;;;5003711;28;20224;-75
2022/10/27 07:54:29;;;;;;;2.92;2.20;;;18.70;99.90;;;;;;4999989;28;20259;-77
2022/10/27 07:56:57;;;;;;;3.55;2.42;;;18.40;99.90;;;;;;4986901;28;20220;-75
2022/10/27 07:59:24;;;;;;;2.50;2.30;;;18.20;99.90;;;;;;4985710;28;20193;-74
2022/10/27 08:01:53;;;;;;;2.13;1.90;;;18.40;99.90;;;;;;4984439;28;20196;-75
2022/10/27 08:04:22;;;;;;;3.17;2.83;;;18.70;99.90;;;;;;4980340;28;20205;-77
2022/10/27 08:06:52;;;;;;;3.20;2.30;;;19.10;99.90;;;;;;4982756;28;20205;-76
2022/10/27 08:09:21;;;;;;;2.38;2.15;;;19.40;99.90;;;;;;4970469;28;20287;-77
2022/10/27 08:11:48;;;;;;;3.33;2.45;;;19.80;99.90;;;;;;4969578;28;20312;-76
2022/10/27 08:14:16;;;;;;;4.65;2.30;;;20.20;99.90;;;;;;4988965;28;20208;-76
2022/10/27 08:16:43;;;;;;;3.75;2.25;;;20.40;99.90;;;;;;4988236;28;20848;-77
2022/10/27 08:19:12;;;;;;;3.30;2.33;;;20.60;99.90;;;;;;4988310;28;20216;-75
2022/10/27 08:21:39;;;;;;;5.25;2.47;;;20.70;99.90;;;;;;4988030;28;20225;-75
2022/10/27 08:24:07;;;;;;;4.25;2.38;;;20.20;99.90;;;;;;4990688;28;20209;-74
2022/10/27 08:26:35;;;;;;;4.40;2.28;;;19.70;99.90;;;;;;4985144;28;20774;-74
2022/10/27 08:29:02;;;;;;;4.07;2.00;;;19.50;99.90;;;;;;4970905;28;20197;-74
2022/10/27 08:31:30;;;;;;;4.15;2.60;;;19.10;99.90;;;;;;4987650;28;20225;-74
2022/10/27 08:33:58;;;;;;;2.90;2.22;;;18.80;99.90;;;;;;4981875;28;20711;-74
2022/10/27 08:36:27;;;;;;;4.00;2.20;;;18.90;99.90;;;;;;4965028;28;20217;-74
2022/10/27 08:38:54;;;;;;;2.40;2.20;;;19.50;99.90;;;;;;4981315;28;20260;-74
2022/10/27 08:41:26;;;;;;;5.80;2.60;;;19.90;99.90;;;;;;4981663;28;20217;-73
2022/10/27 08:44:21;;;;;;;3.35;2.20;;;20.00;99.90;;;;;;4984447;28;20871;-75
2022/10/27 08:46:51;;;;;;;7.55;2.35;;;20.20;99.90;;;;;;4961569;28;20248;-75
2022/10/27 08:49:27;;;;;;;3.53;2.40;;;20.30;99.90;;;;;;4987542;28;20238;-74
2022/10/27 08:51:59;;;;;;;2.50;1.92;;;20.40;99.90;;;;;;4983880;28;20224;-74
2022/10/27 08:54:28;;;;;;;2.58;2.00;;;20.70;99.90;;;;;;4987854;28;20224;-74
2022/10/27 08:56:59;;;;;;;3.55;2.17;;;21.00;99.90;;;;;;5004346;28;20225;-74
2022/10/27 08:59:29;;;;;;;3.63;2.03;;;21.30;99.90;;;;;;4984630;28;20725;-76
2022/10/27 09:02:02;;;;;;;5.47;2.40;;;21.40;99.90;;;;;;4970664;28;20309;-74
2022/10/27 09:04:56;;;;;;;2.20;2.00;;;21.40;99.90;;;;;;4982699;28;20207;-75
2022/10/27 09:07:33;;;;;;;2.88;1.90;;;21.50;99.90;;;;;;4980440;28;20201;-74
2022/10/27 09:10:04;;;;;;;2.35;2.00;;;21.40;99.90;;;;;;4986443;28;20605;-74
2022/10/27 09:13:04;;;;;;;2.47;2.03;;;21.10;99.90;;;;;;4983504;28;20232;-74
2022/10/27 09:15:43;;;;;;;2.10;1.90;;;21.10;99.90;;;;;;4980796;28;20637;-75
2022/10/27 09:18:19;;;;;;;5.05;2.28;;;20.90;99.90;;;;;;4985910;28;20641;-74
2022/10/27 09:20:50;;;;;;;4.50;2.25;;;20.90;99.90;;;;;;4985236;28;20435;-74
2022/10/27 09:23:24;;;;;;;3.72;2.20;;;20.90;99.90;;;;;;5004740;28;20248;-74
2022/10/27 09:25:54;;;;;;;3.00;2.22;;;20.90;99.90;;;;;;4986496;28;20313;-73
2022/10/27 09:28:28;;;;;;;4.30;2.00;;;20.80;99.90;;;;;;4985214;28;20204;-75
2022/10/27 09:30:57;;;;;;;4.30;2.17;;;20.70;99.90;;;;;;4982799;28;20232;-75
2022/10/27 09:33:29;;;;;;;2.80;2.22;;;20.90;99.90;;;;;;4990332;28;20221;-73
2022/10/27 09:36:00;;;;;;;5.68;2.33;;;21.20;99.90;;;;;;4986244;28;20221;-74
2022/10/27 09:38:29;;;;;;;4.22;1.90;;;21.50;99.90;;;;;;4988130;28;20200;-74
2022/10/27 09:40:57;;;;;;;3.80;2.38;;;21.80;99.90;;;;;;4982773;28;20217;-73
2022/10/27 09:43:24;;;;;;;4.88;2.70;;;21.30;99.90;;;;;;4976221;28;20761;-75
2022/10/27 09:45:59;;;;;;;3.50;2.22;;;20.90;99.90;;;;;;4971171;28;20232;-75
2022/10/27 09:48:28;;;;;;;4.25;2.60;;;20.70;99.90;;;;;;4964008;28;20204;-75
2022/10/27 09:50:59;;;;;;;4.40;2.55;;;20.40;99.90;;;;;;4983955;28;20225;-76
2022/10/27 09:53:46;;;;;;;5.97;2.80;;;20.30;99.90;;;;;;4983483;28;20229;-76
2022/10/27 09:56:18;;;;;;;7.53;3.67;;;20.10;99.90;;;;;;4986906;28;20721;-75
2022/10/27 09:58:56;;;;;;;4.55;2.75;;;20.10;99.90;;;;;;4998304;28;20201;-75
2022/10/27 10:01:25;;;;;;;4.55;3.00;;;19.90;99.90;;;;;;4981094;28;20758;-76
2022/10/27 10:03:55;;;;;;;7.43;3.10;;;20.10;99.90;;;;;;4969279;28;20413;-76
2022/10/27 10:06:28;;;;;;;7.13;2.90;;;20.20;99.90;;;;;;4987760;28;20786;-75
2022/10/27 10:09:14;;;;;;;6.00;3.05;;;20.40;99.90;;;;;;4985404;28;20209;-76
2022/10/27 10:11:42;;;;;;;3.95;2.17;;;20.60;99.90;;;;;;4984233;28;20264;-76
2022/10/27 10:14:23;;;;;;;3.67;2.45;;;20.60;99.90;;;;;;5000420;28;20229;-75
2022/10/27 10:16:51;;;;;;;2.78;2.13;;;20.70;99.90;;;;;;4988132;28;20311;-75
2022/10/27 10:19:23;;;;;;;3.80;2.35;;;21.00;99.90;;;;;;4987845;28;20201;-75
2022/10/27 10:21:53;;;;;;;5.80;2.70;;;21.10;99.90;;;;;;4968616;28;20221;-75
2022/10/27 10:24:25;;;;;;;4.57;2.42;;;21.30;99.90;;;;;;4985361;28;20287;-76
2022/10/27 10:26:55;;;;;;;4.20;2.60;;;21.60;99.90;;;;;;4986243;28;20205;-75
2022/10/27 10:29:27;;;;;;;3.38;2.22;;;21.60;99.90;;;;;;4981631;28;20196;-75
2022/10/27 10:32:08;;;;;;;3.53;2.30;;;21.70;99.90;;;;;;4985133;28;20208;-75
2022/10/27 10:34:36;;;;;;;5.82;2.40;;;21.80;99.90;;;;;;4988069;28;20665;-75
2022/10/27 10:37:04;;;;;;;7.22;2.45;;;22.00;99.90;;;;;;4988689;28;20200;-74
2022/10/27 10:39:39;;;;;;;3.53;2.20;;;22.00;99.90;;;;;;4988955;28;20228;-75
2022/10/27 10:42:17;;;;;;;3.65;2.13;;;22.00;99.90;;;;;;4986710;28;20217;-75
2022/10/27 10:44:46;;;;;;;6.55;2.65;;;21.90;99.90;;;;;;4984711;28;20740;-75
2022/10/27 10:47:27;;;;;;;3.08;2.20;;;21.90;99.90;;;;;;4982400;28;20210;-75
2022/10/27 10:49:58;;;;;;;4.03;2.47;;;21.80;99.90;;;;;;4983905;28;20588;-75
2022/10/27 10:52:32;;;;;;;3.78;2.03;;;22.00;99.90;;;;;;4983995;28;20283;-74
2022/10/27 10:55:06;;;;;;;2.80;2.30;;;22.40;99.90;;;;;;4986542;28;20882;-75
2022/10/27 10:57:37;;;;;;;2.42;2.03;;;22.50;99.90;;;;;;4986591;28;20263;-75
2022/10/27 11:00:07;;;;;;;2.25;1.90;;;22.60;99.90;;;;;;4987335;28;20741;-75
2022/10/27 11:02:35;;;;;;;5.07;2.38;;;22.60;99.90;;;;;;4986248;28;20233;-74
2022/10/27 11:05:13;;;;;;;3.25;2.25;;;22.60;99.90;;;;;;4982527;28;20220;-75
2022/10/27 11:07:41;;;;;;;3.92;2.00;;;22.60;99.90;;;;;;4980643;28;20197;-75
2022/10/27 11:10:16;;;;;;;2.42;2.05;;;22.80;99.90;;;;;;4987506;28;20225;-75
2022/10/27 11:12:46;;;;;;;4.10;2.30;;;22.70;99.90;;;;;;4996482;28;20221;-75
2022/10/27 11:15:20;;;;;;;2.53;1.92;;;22.60;99.90;;;;;;4969253;28;20212;-75
2022/10/27 11:17:53;;;;;;;3.80;2.40;;;22.50;99.90;;;;;;4985643;28;20212;-75
2022/10/27 11:20:23;;;;;;;3.28;2.03;;;22.40;99.90;;;;;;4986045;28;20220;-75
2022/10/27 11:22:53;;;;;;;2.35;2.15;;;22.40;99.90;;;;;;4997298;28;20600;-75
2022/10/27 11:25:26;;;;;;;2.60;1.70;;;22.30;99.90;;;;;;4967160;28;20217;-75
2022/10/27 11:28:03;;;;;;;2.40;2.03;;;22.60;99.90;;;;;;4986043;28;20201;-75
2022/10/27 11:30:32;;;;;;;4.03;2.15;;;22.70;99.90;;;;;;4984862;28;20220;-75
2022/10/27 11:33:11;;;;;;;2.35;2.15;;;22.60;99.90;;;;;;4985402;28;20228;-75
2022/10/27 11:35:46;;;;;;;7.38;2.63;;;22.90;99.90;;;;;;4967369;28;20217;-77
2022/10/27 11:38:21;;;;;;;3.72;2.05;;;22.80;99.90;;;;;;4996891;28;20204;-75
2022/10/27 11:40:55;;;;;;;4.70;2.20;;;22.70;99.90;;;;;;4991188;28;20282;-75
2022/10/27 11:43:29;;;;;;;4.53;2.65;;;22.90;99.90;;;;;;4994336;28;20318;-75
2022/10/27 11:46:04;;;;;;;3.03;2.00;;;22.90;99.90;;;;;;4981988;28;20247;-75
2022/10/27 11:48:37;;;;;;;2.33;1.58;;;22.80;99.90;;;;;;4984179;28;20200;-76
2022/10/27 11:51:09;;;;;;;4.70;2.20;;;22.60;99.90;;;;;;4987609;28;20223;-74
2022/10/27 11:53:37;;;;;;;3.85;2.10;;;22.50;99.90;;;;;;4974223;28;20720;-73
2022/10/27 11:56:34;;;;;;;4.30;2.20;;;22.20;99.90;;;;;;4984849;28;20220;-74
2022/10/27 11:59:15;;;;;;;3.45;2.10;;;22.10;99.90;;;;;;4987443;28;20205;-74
2022/10/27 12:01:58;;;;;;;2.20;1.90;;;22.00;99.90;;;;;;5000905;28;20931;-74
2022/10/27 12:04:39;;;;;;;3.60;2.00;;;21.90;99.90;;;;;;4972274;28;20193;-74
2022/10/27 12:07:16;;;;;;;2.35;1.90;;;21.80;99.90;;;;;;4985471;28;20197;-74
2022/10/27 12:10:01;;;;;;;4.45;1.90;;;21.80;99.90;;;;;;4983882;28;20233;-75
2022/10/27 12:12:36;;;;;;;3.90;2.00;;;21.80;99.90;;;;;;4984116;28;20270;-74
2022/10/27 12:15:11;;;;;;;5.07;2.10;;;21.80;99.90;;;;;;4979026;28;20217;-73
2022/10/27 12:17:44;;;;;;;2.20;1.92;;;22.00;99.90;;;;;;4966390;28;20204;-74
2022/10/27 12:20:16;;;;;;;3.63;2.10;;;22.20;99.90;;;;;;4986385;28;20603;-74
2022/10/27 12:22:49;;;;;;;2.85;1.90;;;22.20;99.90;;;;;;4971207;28;20233;-74
2022/10/27 12:25:21;;;;;;;6.53;2.40;;;22.10;99.90;;;;;;4996214;28;20229;-74
2022/10/27 12:27:53;;;;;;;3.10;2.08;;;22.20;99.90;;;;;;4986852;28;20197;-74
2022/10/27 12:30:22;;;;;;;3.00;1.85;;;22.40;99.90;;;;;;4985357;28;20217;-74
2022/10/27 12:32:55;;;;;;;4.05;2.00;;;22.60;99.90;;;;;;4986508;28;20279;-74
2022/10/27 12:35:28;;;;;;;3.33;1.90;;;22.70;99.90;;;;;;4984453;28;20220;-74
2022/10/27 12:38:03;;;;;;;2.42;2.10;;;22.70;99.90;;;;;;4982105;28;20193;-74
2022/10/27 12:40:36;;;;;;;3.50;2.08;;;22.80;99.90;;;;;;4971728;28;20599;-74
2022/10/27 12:43:16;;;;;;;4.20;2.25;;;22.80;99.90;;;;;;4986802;28;20213;-74
2022/10/27 12:46:13;;;;;;;3.33;1.83;;;22.70;99.90;;;;;;4983557;28;20591;-74
2022/10/27 12:48:50;;;;;;;3.15;1.83;;;22.60;99.90;;;;;;4967961;28;20374;-74
2022/10/27 12:51:31;;;;;;;4.35;2.05;;;22.70;99.90;;;;;;4971723;28;20225;-74
2022/10/27 12:54:10;;;;;;;3.53;2.03;;;22.40;99.90;;;;;;4969322;28;20741;-74
2022/10/27 12:56:44;;;;;;;2.58;1.52;;;22.20;99.90;;;;;;4982828;28;20220;-74
2022/10/27 12:59:24;;;;;;;4.15;1.92;;;22.30;99.90;;;;;;4984598;28;20219;-74
2022/10/27 13:01:57;;;;;;;4.00;2.10;;;22.50;99.90;;;;;;4985922;28;20525;-74
2022/10/27 13:05:11;;;;;;;2.65;1.80;;;22.50;99.90;;;;;;4987231;28;20662;-74
2022/10/27 13:08:07;;;;;;;2.05;1.55;;;22.60;99.90;;;;;;4944949;28;20209;-74